createdAt,value
2024-05-09T00:00:47.814Z,12.22
2024-05-09T00:03:15.097Z,12.24
2024-05-09T00:05:46.448Z,12.24
2024-05-09T00:08:15.125Z,12.21
2024-05-09T00:10:43.458Z,12.18
2024-05-09T00:13:12.010Z,12.18
2024-05-09T00:15:48.906Z,12.18
2024-05-09T00:18:16.366Z,12.18
2024-05-09T00:20:43.556Z,12.18
2024-05-09T00:23:15.734Z,12.18
2024-05-09T00:25:43.907Z,12.18
2024-05-09T00:28:13.687Z,12.16
2024-05-09T00:30:40.982Z,12.15
2024-05-09T00:33:09.962Z,12.15
2024-05-09T00:35:38.527Z,12.18
2024-05-09T00:38:06.230Z,12.18
2024-05-09T00:40:41.750Z,12.18
2024-05-09T00:43:12.498Z,12.18
2024-05-09T00:45:43.948Z,12.18
2024-05-09T00:48:20.928Z,12.16
2024-05-09T00:50:50.461Z,12.13
2024-05-09T00:53:19.146Z,12.10
2024-05-09T00:55:50.244Z,12.08
2024-05-09T00:58:22.819Z,12.04
2024-05-09T01:00:54.277Z,12.02
2024-05-09T01:03:22.108Z,12.01
2024-05-09T01:05:52.672Z,11.99
2024-05-09T01:08:22.787Z,11.97
2024-05-09T01:10:52.958Z,11.96
2024-05-09T01:13:22.712Z,11.94
2024-05-09T01:15:55.339Z,11.90
2024-05-09T01:18:22.735Z,11.87
2024-05-09T01:20:52.501Z,11.83
2024-05-09T01:23:19.856Z,11.79
2024-05-09T01:25:49.846Z,11.76
2024-05-09T01:28:17.200Z,11.73
2024-05-09T01:30:49.654Z,11.71
2024-05-09T01:33:26.923Z,11.68
2024-05-09T01:35:56.749Z,11.66
2024-05-09T01:38:23.889Z,11.64
2024-05-09T01:40:51.197Z,11.62
2024-05-09T01:43:18.424Z,11.60
2024-05-09T01:45:45.602Z,11.56
2024-05-09T01:48:15.422Z,11.52
2024-05-09T01:50:43.438Z,11.48
2024-05-09T01:53:13.632Z,11.46
2024-05-09T01:55:41.628Z,11.43
2024-05-09T01:58:09.347Z,11.42
2024-05-09T02:00:40.740Z,11.38
2024-05-09T02:03:15.208Z,11.35
2024-05-09T02:05:50.207Z,11.31
2024-05-09T02:08:22.078Z,11.29
2024-05-09T02:10:50.701Z,11.25
2024-05-09T02:13:18.537Z,11.21
2024-05-09T02:15:52.118Z,11.14
2024-05-09T02:18:20.837Z,11.04
2024-05-09T02:20:49.758Z,10.95
2024-05-09T02:23:20.008Z,10.89
2024-05-09T02:25:50.395Z,10.85
2024-05-09T02:28:19.603Z,10.83
2024-05-09T02:30:46.794Z,10.82
2024-05-09T02:33:14.644Z,10.80
2024-05-09T02:35:51.690Z,10.79
2024-05-09T02:38:21.191Z,10.77
2024-05-09T02:40:48.410Z,10.75
2024-05-09T02:43:15.648Z,10.70
2024-05-09T02:45:42.751Z,10.66
2024-05-09T02:48:12.113Z,10.65
2024-05-09T02:50:45.347Z,10.65
2024-05-09T02:53:15.374Z,10.65
2024-05-09T02:55:43.159Z,10.63
2024-05-09T02:58:11.318Z,10.62
2024-05-09T03:00:43.257Z,10.60
2024-05-09T03:03:14.169Z,10.60
2024-05-09T03:05:44.068Z,10.59
2024-05-09T03:08:15.211Z,10.57
2024-05-09T03:10:42.840Z,10.54
2024-05-09T03:13:14.019Z,10.54
2024-05-09T03:15:45.180Z,10.52
2024-05-09T03:18:12.972Z,10.51
2024-05-09T03:20:40.670Z,10.51
2024-05-09T03:23:10.820Z,10.49
2024-05-09T03:25:45.135Z,10.48
2024-05-09T03:28:12.367Z,10.46
2024-05-09T03:30:42.446Z,10.45
2024-05-09T03:33:20.202Z,10.43
2024-05-09T03:35:48.723Z,10.41
2024-05-09T03:38:16.652Z,10.40
2024-05-09T03:40:45.639Z,10.38
2024-05-09T03:43:13.735Z,10.35
2024-05-09T03:45:41.981Z,10.34
2024-05-09T03:48:09.524Z,10.32
2024-05-09T03:50:37.401Z,10.30
2024-05-09T03:53:05.344Z,10.28
2024-05-09T03:55:32.593Z,10.26
2024-05-09T03:57:59.912Z,10.22
2024-05-09T04:00:37.092Z,10.21
2024-05-09T04:03:09.704Z,10.17
2024-05-09T04:05:44.677Z,10.10
2024-05-09T04:08:15.160Z,10.05
2024-05-09T04:10:42.750Z,10.03
2024-05-09T04:13:10.846Z,10.00
2024-05-09T04:15:38.281Z,9.96
2024-05-09T04:18:05.689Z,9.93
2024-05-09T04:20:38.407Z,9.92
2024-05-09T04:23:12.031Z,9.90
2024-05-09T04:25:43.270Z,9.90
2024-05-09T04:28:12.046Z,9.88
2024-05-09T04:30:41.308Z,9.87
2024-05-09T04:33:12.164Z,9.85
2024-05-09T04:35:45.664Z,9.81
2024-05-09T04:38:14.670Z,9.77
2024-05-09T04:40:42.592Z,9.74
2024-05-09T04:43:18.848Z,9.72
2024-05-09T04:45:47.312Z,9.69
2024-05-09T04:48:14.674Z,9.62
2024-05-09T04:50:45.154Z,9.56
2024-05-09T04:53:17.739Z,9.51
2024-05-09T04:55:45.198Z,9.49
2024-05-09T04:58:12.517Z,9.49
2024-05-09T05:00:40.886Z,9.50
2024-05-09T05:03:13.224Z,9.50
2024-05-09T05:05:45.915Z,9.51
2024-05-09T05:08:18.639Z,9.54
2024-05-09T05:10:48.238Z,9.60
2024-05-09T05:13:20.997Z,9.65
2024-05-09T05:15:52.168Z,9.73
2024-05-09T05:18:19.738Z,9.80
2024-05-09T05:20:52.122Z,9.88
2024-05-09T05:23:21.348Z,9.95
2024-05-09T05:25:52.729Z,10.03
2024-05-09T05:28:20.985Z,10.08
2024-05-09T05:30:48.125Z,10.11
2024-05-09T05:33:18.756Z,10.14
2024-05-09T05:35:46.545Z,10.19
2024-05-09T05:38:14.436Z,10.23
2024-05-09T05:40:42.004Z,10.25
2024-05-09T05:43:20.848Z,10.26
2024-05-09T05:45:48.035Z,10.30
2024-05-09T05:48:19.070Z,10.39
2024-05-09T05:50:49.049Z,10.52
2024-05-09T05:53:19.688Z,10.68
2024-05-09T05:55:49.994Z,10.89
2024-05-09T05:58:20.279Z,11.15
2024-05-09T06:00:48.148Z,11.38
2024-05-09T06:03:18.064Z,11.49
2024-05-09T06:05:48.303Z,11.59
2024-05-09T06:08:18.744Z,11.70
2024-05-09T06:10:46.197Z,11.82
2024-05-09T06:13:14.420Z,11.98
2024-05-09T06:15:42.693Z,12.09
2024-05-09T06:18:11.713Z,12.14
2024-05-09T06:20:42.295Z,12.20
2024-05-09T06:23:10.929Z,12.23
2024-05-09T06:25:42.202Z,12.26
2024-05-09T06:28:09.976Z,12.29
2024-05-09T06:30:41.337Z,12.34
2024-05-09T06:33:12.980Z,12.49
2024-05-09T06:35:42.550Z,12.67
2024-05-09T06:38:10.779Z,12.85
2024-05-09T06:40:42.214Z,13.03
2024-05-09T06:43:22.477Z,13.22
2024-05-09T06:45:53.038Z,13.34
2024-05-09T06:48:21.819Z,13.45
2024-05-09T06:50:54.838Z,13.56
2024-05-09T06:53:23.613Z,13.68
2024-05-09T06:55:54.027Z,13.81
2024-05-09T06:58:21.223Z,13.93
2024-05-09T07:00:48.499Z,14.04
2024-05-09T07:03:19.425Z,14.15
2024-05-09T07:05:50.117Z,14.24
2024-05-09T07:08:21.178Z,14.34
2024-05-09T07:10:48.577Z,14.44
2024-05-09T07:13:18.201Z,14.54
2024-05-09T07:15:45.406Z,14.62
2024-05-09T07:18:18.576Z,14.72
2024-05-09T07:20:50.692Z,14.82
2024-05-09T07:23:21.814Z,14.92
2024-05-09T07:25:58.752Z,15.02
2024-05-09T07:28:26.279Z,15.14
2024-05-09T07:30:55.665Z,15.22
2024-05-09T07:33:24.970Z,15.27
2024-05-09T07:35:52.941Z,15.34
2024-05-09T07:38:20.442Z,15.40
2024-05-09T07:40:47.867Z,15.47
2024-05-09T07:43:15.906Z,15.57
2024-05-09T07:45:53.110Z,15.68
2024-05-09T07:52:38.849Z,15.87
2024-05-09T07:53:50.622Z,15.98
2024-05-09T07:56:24.075Z,16.08
2024-05-09T07:58:55.593Z,16.17
2024-05-09T08:03:56.130Z,16.33
2024-05-09T08:06:26.721Z,16.42
2024-05-09T08:08:54.193Z,16.51
2024-05-09T08:11:24.176Z,16.58
2024-05-09T08:13:51.504Z,16.67
2024-05-09T08:16:18.916Z,16.76
2024-05-09T08:18:46.273Z,16.84
2024-05-09T08:21:13.500Z,16.91
2024-05-09T08:23:43.968Z,16.98
2024-05-09T08:26:13.331Z,17.04
2024-05-09T08:28:40.607Z,17.09
2024-05-09T08:31:09.301Z,17.14
2024-05-09T08:33:47.037Z,17.17
2024-05-09T08:36:14.728Z,17.18
2024-05-09T08:38:47.713Z,17.22
2024-05-09T08:41:17.153Z,17.26
2024-05-09T08:43:46.101Z,17.29
2024-05-09T08:46:14.447Z,17.34
2024-05-09T08:48:50.606Z,17.42
2024-05-09T08:51:20.935Z,17.50
2024-05-09T08:53:51.208Z,17.56
2024-05-09T08:56:21.661Z,17.60
2024-05-09T08:58:49.683Z,17.65
2024-05-09T09:01:18.944Z,17.71
2024-05-09T09:03:47.740Z,17.78
2024-05-09T09:06:21.371Z,17.87
2024-05-09T09:08:56.896Z,17.98
2024-05-09T09:11:24.313Z,18.06
2024-05-09T09:13:52.949Z,18.13
2024-05-09T09:16:23.511Z,18.19
2024-05-09T09:18:55.670Z,18.25
2024-05-09T09:21:22.937Z,18.30
2024-05-09T09:23:50.030Z,18.35
2024-05-09T09:26:18.561Z,18.42
2024-05-09T09:28:45.869Z,18.51
2024-05-09T09:31:18.524Z,18.60
2024-05-09T09:33:46.399Z,18.69
2024-05-09T09:36:14.487Z,18.78
2024-05-09T09:38:42.341Z,18.89
2024-05-09T09:41:14.377Z,18.99
2024-05-09T09:43:43.120Z,19.12
2024-05-09T09:46:14.339Z,19.26
2024-05-09T09:48:45.739Z,19.38
2024-05-09T09:51:15.312Z,19.46
2024-05-09T09:53:44.351Z,19.50
2024-05-09T09:56:13.259Z,19.52
2024-05-09T09:58:46.639Z,19.54
2024-05-09T10:01:14.244Z,19.54
2024-05-09T10:03:45.419Z,19.55
2024-05-09T10:06:15.561Z,19.55
2024-05-09T10:08:45.123Z,19.52
2024-05-09T10:11:12.442Z,19.48
2024-05-09T10:13:41.650Z,19.45
2024-05-09T10:16:10.662Z,19.41
2024-05-09T10:18:39.475Z,19.37
2024-05-09T10:21:21.578Z,19.33
2024-05-09T10:24:02.927Z,19.28
2024-05-09T10:26:34.831Z,19.22
2024-05-09T10:29:13.083Z,19.20
2024-05-09T10:31:44.776Z,19.21
2024-05-09T10:34:23.094Z,19.25
2024-05-09T10:36:58.931Z,19.29
2024-05-09T10:39:27.540Z,19.35
2024-05-09T10:41:54.681Z,19.44
2024-05-09T10:44:22.165Z,19.55
2024-05-09T10:46:50.447Z,19.67
2024-05-09T10:49:21.320Z,19.80
2024-05-09T10:51:48.890Z,19.92
2024-05-09T10:54:16.361Z,20.06
2024-05-09T10:56:43.642Z,20.17
2024-05-09T10:59:12.925Z,20.29
2024-05-09T11:01:42.694Z,20.41
2024-05-09T11:04:10.327Z,20.55
2024-05-09T11:06:38.567Z,20.67
2024-05-09T11:09:10.206Z,20.77
2024-05-09T11:11:37.576Z,20.86
2024-05-09T11:14:12.604Z,20.96
2024-05-09T11:16:41.130Z,20.99
2024-05-09T11:19:13.852Z,20.99
2024-05-09T11:21:41.166Z,21.01
2024-05-09T11:24:11.193Z,21.04
2024-05-09T11:26:41.142Z,21.05
2024-05-09T11:29:11.030Z,21.05
2024-05-09T11:31:48.226Z,21.05
2024-05-09T11:34:15.872Z,21.04
2024-05-09T11:36:43.135Z,21.04
2024-05-09T11:39:14.784Z,20.99
2024-05-09T11:41:46.122Z,20.93
2024-05-09T11:44:20.429Z,20.86
2024-05-09T11:46:47.644Z,20.82
2024-05-09T11:49:15.531Z,20.80
2024-05-09T11:51:45.431Z,20.72
2024-05-09T11:54:15.432Z,20.62
2024-05-09T11:56:43.379Z,20.59
2024-05-09T11:59:13.537Z,20.60
2024-05-09T12:01:41.032Z,20.59
2024-05-09T12:04:08.985Z,20.60
2024-05-09T12:06:39.448Z,20.61
2024-05-09T12:09:06.708Z,20.63
2024-05-09T12:11:34.081Z,20.65
2024-05-09T12:14:04.566Z,20.68
2024-05-09T12:16:32.008Z,20.70
2024-05-09T12:18:59.291Z,20.70
2024-05-09T12:21:26.525Z,20.70
2024-05-09T12:23:54.720Z,20.68
2024-05-09T12:26:21.880Z,20.70
2024-05-09T12:28:49.092Z,20.67
2024-05-09T12:31:16.364Z,20.59
2024-05-09T12:33:43.686Z,20.54
2024-05-09T12:36:10.991Z,20.49
2024-05-09T12:38:38.080Z,20.41
2024-05-09T12:41:05.318Z,20.36
2024-05-09T12:43:32.586Z,20.34
2024-05-09T12:46:03.541Z,20.32
2024-05-09T12:48:33.920Z,20.28
2024-05-09T12:51:01.219Z,20.24
2024-05-09T12:53:28.504Z,20.16
2024-05-09T12:55:59.968Z,20.11
2024-05-09T12:58:32.536Z,20.08
2024-05-09T13:00:59.806Z,20.05
2024-05-09T13:03:29.403Z,20.09
2024-05-09T13:05:58.715Z,20.13
2024-05-09T13:08:26.047Z,20.11
2024-05-09T13:10:59.655Z,20.08
2024-05-09T13:13:27.023Z,20.13
2024-05-09T13:15:54.467Z,20.19
2024-05-09T13:18:24.063Z,20.22
2024-05-09T13:20:53.582Z,20.23
2024-05-09T13:23:20.738Z,20.24
2024-05-09T13:25:47.992Z,20.30
2024-05-09T13:28:15.313Z,20.39
2024-05-09T13:30:43.802Z,20.43
2024-05-09T13:33:12.233Z,20.44
2024-05-09T13:35:47.279Z,20.48
2024-05-09T13:38:21.276Z,20.49
2024-05-09T13:40:52.574Z,20.42
2024-05-09T13:43:21.796Z,20.38
2024-05-09T13:45:49.596Z,20.31
2024-05-09T13:48:17.239Z,20.25
2024-05-09T13:50:46.788Z,20.11
2024-05-09T13:53:13.947Z,20.05
2024-05-09T13:55:41.135Z,20.03
2024-05-09T13:58:09.515Z,20.02
2024-05-09T14:00:46.634Z,20.04
2024-05-09T14:03:19.209Z,20.03
2024-05-09T14:05:51.380Z,20.01
2024-05-09T14:08:22.250Z,19.94
2024-05-09T14:10:50.820Z,19.81
2024-05-09T14:13:18.405Z,19.76
2024-05-09T14:15:46.766Z,19.63
2024-05-09T14:18:17.375Z,19.56
2024-05-09T14:20:44.645Z,19.54
2024-05-09T14:23:11.893Z,19.50
2024-05-09T14:25:42.363Z,19.45
2024-05-09T14:28:11.574Z,19.39
2024-05-09T14:30:40.375Z,19.36
2024-05-09T14:33:08.934Z,19.38
2024-05-09T14:35:38.663Z,19.39
2024-05-09T14:38:09.644Z,19.30
2024-05-09T14:40:42.148Z,19.26
2024-05-09T14:43:15.960Z,19.22
2024-05-09T14:45:47.589Z,19.14
2024-05-09T14:48:15.817Z,19.10
2024-05-09T14:50:52.137Z,19.06
2024-05-09T14:53:20.571Z,19.04
2024-05-09T14:55:49.577Z,19.03
2024-05-09T14:58:17.440Z,19.01
2024-05-09T15:00:51.175Z,19.05
2024-05-09T15:03:21.012Z,19.09
2024-05-09T15:05:50.186Z,19.14
2024-05-09T15:08:20.481Z,19.06
2024-05-09T15:10:50.067Z,19.06
2024-05-09T15:13:18.659Z,19.05
2024-05-09T15:15:48.684Z,19.08
2024-05-09T15:18:23.088Z,19.10
2024-05-09T15:20:55.674Z,19.15
2024-05-09T15:23:23.250Z,19.21
2024-05-09T15:25:50.349Z,19.26
2024-05-09T15:28:18.195Z,19.24
2024-05-09T15:30:48.278Z,19.19
2024-05-09T15:33:17.023Z,19.15
2024-05-09T15:35:47.117Z,19.12
2024-05-09T15:38:16.909Z,19.14
2024-05-09T15:40:50.561Z,19.20
2024-05-09T15:43:18.176Z,19.24
2024-05-09T15:45:47.748Z,19.24
2024-05-09T15:48:15.135Z,19.25
2024-05-09T15:50:43.027Z,19.24
2024-05-09T15:53:12.572Z,19.25
2024-05-09T15:55:40.593Z,19.25
2024-05-09T15:58:08.395Z,19.21
2024-05-09T16:00:39.808Z,19.13
2024-05-09T16:03:13.991Z,19.06
2024-05-09T16:05:49.194Z,19.07
2024-05-09T16:08:18.908Z,19.15
2024-05-09T16:10:47.169Z,19.19
2024-05-09T16:13:17.803Z,19.18
2024-05-09T16:15:45.674Z,19.12
2024-05-09T16:18:13.861Z,19.10
2024-05-09T16:20:43.222Z,19.13
2024-05-09T16:23:12.856Z,19.11
2024-05-09T16:25:45.113Z,19.13
2024-05-09T16:28:20.534Z,19.13
2024-05-09T16:30:55.705Z,19.16
2024-05-09T16:33:25.635Z,19.14
2024-05-09T16:35:53.191Z,19.14
2024-05-09T16:38:27.882Z,19.17
2024-05-09T16:40:58.682Z,19.23
2024-05-09T16:43:26.262Z,19.24
2024-05-09T16:45:56.830Z,19.26
2024-05-09T16:48:26.643Z,19.24
2024-05-09T16:50:53.757Z,19.23
2024-05-09T16:53:20.923Z,19.21
2024-05-09T16:55:48.381Z,19.19
2024-05-09T16:58:15.688Z,19.19
2024-05-09T17:00:44.126Z,19.20
2024-05-09T17:03:15.274Z,19.16
2024-05-09T17:05:46.685Z,19.14
2024-05-09T17:08:23.191Z,19.10
2024-05-09T17:10:50.588Z,19.08
2024-05-09T17:13:18.528Z,19.05
2024-05-09T17:15:47.012Z,19.01
2024-05-09T17:18:16.754Z,18.97
2024-05-09T17:20:44.074Z,18.93
2024-05-09T17:23:14.662Z,18.90
2024-05-09T17:25:44.612Z,18.89
2024-05-09T17:28:12.544Z,18.90
2024-05-09T17:30:42.118Z,18.92
2024-05-09T17:33:13.835Z,18.95
2024-05-09T17:35:46.064Z,18.96
2024-05-09T17:38:13.541Z,18.97
2024-05-09T17:40:43.585Z,18.96
2024-05-09T17:43:11.275Z,18.96
2024-05-09T17:45:40.204Z,18.96
2024-05-09T17:48:10.261Z,18.92
2024-05-09T17:50:42.079Z,18.89
2024-05-09T17:53:12.198Z,18.86
2024-05-09T17:55:40.549Z,18.86
2024-05-09T17:58:08.818Z,18.83
2024-05-09T18:00:39.908Z,18.79
2024-05-09T18:03:15.843Z,18.73
2024-05-09T18:05:44.391Z,18.67
2024-05-09T18:08:12.805Z,18.58
2024-05-09T18:10:41.341Z,18.52
2024-05-09T18:13:10.058Z,18.45
2024-05-09T18:15:40.242Z,18.38
2024-05-09T18:18:08.816Z,18.31
2024-05-09T18:20:43.993Z,18.22
2024-05-09T18:23:16.269Z,18.13
2024-05-09T18:25:45.685Z,18.05
2024-05-09T18:28:13.562Z,17.99
2024-05-09T18:30:41.221Z,17.93
2024-05-09T18:33:12.711Z,17.90
2024-05-09T18:35:44.675Z,17.85
2024-05-09T18:38:12.164Z,17.76
2024-05-09T18:40:42.821Z,17.70
2024-05-09T18:43:38.022Z,17.66
2024-05-09T18:46:10.782Z,17.64
2024-05-09T18:48:40.132Z,17.65
2024-05-09T18:51:07.618Z,17.67
2024-05-09T18:53:34.760Z,17.68
2024-05-09T18:56:01.982Z,17.69
2024-05-09T18:58:29.190Z,17.68
2024-05-09T19:00:58.411Z,17.65
2024-05-09T19:03:27.260Z,17.60
2024-05-09T19:05:56.613Z,17.56
2024-05-09T19:08:23.984Z,17.52
2024-05-09T19:10:54.135Z,17.48
2024-05-09T19:13:24.397Z,17.42
2024-05-09T19:15:54.703Z,17.37
2024-05-09T19:18:26.044Z,17.33
2024-05-09T19:20:53.336Z,17.30
2024-05-09T19:23:20.544Z,17.26
2024-05-09T19:25:47.759Z,17.21
2024-05-09T19:28:14.862Z,17.17
2024-05-09T19:30:42.983Z,17.13
2024-05-09T19:33:14.916Z,17.10
2024-05-09T19:35:43.353Z,17.10
2024-05-09T19:38:14.051Z,17.09
2024-05-09T19:40:44.130Z,17.08
2024-05-09T19:43:13.489Z,17.08
2024-05-09T19:45:40.849Z,17.08
2024-05-09T19:48:08.582Z,17.08
2024-05-09T19:50:43.089Z,17.08
2024-05-09T19:53:15.378Z,17.07
2024-05-09T19:55:45.499Z,17.06
2024-05-09T19:58:15.750Z,17.06
2024-05-09T20:00:44.373Z,17.05
2024-05-09T20:03:14.341Z,17.03
2024-05-09T20:05:44.201Z,16.96
2024-05-09T20:08:13.918Z,16.90
2024-05-09T20:10:41.235Z,16.85
2024-05-09T20:13:08.949Z,16.80
2024-05-09T20:15:41.305Z,16.71
2024-05-09T20:18:12.990Z,16.65
2024-05-09T20:20:43.911Z,16.62
2024-05-09T20:23:13.360Z,16.59
2024-05-09T20:25:44.052Z,16.58
2024-05-09T20:28:11.428Z,16.56
2024-05-09T20:30:38.861Z,16.55
2024-05-09T20:33:07.810Z,16.55
2024-05-09T20:35:36.420Z,16.53
2024-05-09T20:38:04.439Z,16.50
2024-05-09T20:40:36.204Z,16.45
2024-05-09T20:43:08.178Z,16.42
2024-05-09T20:45:39.043Z,16.35
2024-05-09T20:48:07.738Z,16.30
2024-05-09T20:50:39.209Z,16.30
2024-05-09T20:53:14.947Z,16.31
2024-05-09T20:55:45.473Z,16.30
2024-05-09T20:58:13.436Z,16.31
2024-05-09T21:00:44.193Z,16.31
2024-05-09T21:03:16.866Z,16.30
2024-05-09T21:05:45.584Z,16.30
2024-05-09T21:08:15.562Z,16.26
2024-05-09T21:10:42.901Z,16.22
2024-05-09T21:13:10.140Z,16.17
2024-05-09T21:15:37.491Z,16.14
2024-05-09T21:18:07.215Z,16.11
2024-05-09T21:20:35.173Z,16.08
2024-05-09T21:23:02.952Z,16.04
2024-05-09T21:25:31.183Z,16.00
2024-05-09T21:27:58.852Z,15.96
2024-05-09T21:30:38.425Z,15.90
2024-05-09T21:33:13.588Z,15.88
2024-05-09T21:35:45.515Z,15.85
2024-05-09T21:38:16.299Z,15.82
2024-05-09T21:40:46.485Z,15.77
2024-05-09T21:43:18.076Z,15.73
2024-05-09T21:45:45.373Z,15.69
2024-05-09T21:48:13.092Z,15.67
2024-05-09T21:50:42.250Z,15.62
2024-05-09T21:53:15.269Z,15.59
2024-05-09T21:55:43.739Z,15.55
2024-05-09T21:58:14.386Z,15.51
2024-05-09T22:00:47.375Z,15.49
2024-05-09T22:03:15.034Z,15.46
2024-05-09T22:05:44.255Z,15.42
2024-05-09T22:08:18.162Z,15.39
2024-05-09T22:10:45.460Z,15.35
2024-05-09T22:13:12.618Z,15.32
2024-05-09T22:15:40.659Z,15.30
2024-05-09T22:18:09.999Z,15.28
2024-05-09T22:20:44.669Z,15.26
2024-05-09T22:23:15.021Z,15.23
2024-05-09T22:25:42.367Z,15.22
2024-05-09T22:28:12.639Z,15.20
2024-05-09T22:30:43.911Z,15.18
2024-05-09T22:33:16.455Z,15.16
2024-05-09T22:35:43.691Z,15.16
2024-05-09T22:38:10.794Z,15.15
2024-05-09T22:40:46.690Z,15.12
2024-05-09T22:43:21.730Z,15.09
2024-05-09T22:45:54.990Z,15.08
2024-05-09T22:48:23.886Z,15.06
2024-05-09T22:50:51.731Z,15.03
2024-05-09T22:53:19.304Z,15.01
2024-05-09T22:55:46.416Z,15.00
2024-05-09T22:58:16.585Z,14.99
2024-05-09T23:00:43.923Z,14.94
2024-05-09T23:03:11.706Z,14.86
2024-05-09T23:05:41.195Z,14.77
2024-05-09T23:08:08.683Z,14.71
2024-05-09T23:10:38.544Z,14.65
2024-05-09T23:13:07.342Z,14.58
2024-05-09T23:15:38.712Z,14.54
2024-05-09T23:18:07.058Z,14.52
2024-05-09T23:20:38.470Z,14.52
2024-05-09T23:23:08.314Z,14.51
2024-05-09T23:25:36.936Z,14.50
2024-05-09T23:28:04.578Z,14.51
2024-05-09T23:30:37.221Z,14.50
2024-05-09T23:33:13.599Z,14.48
2024-05-09T23:35:43.494Z,14.48
2024-05-09T23:38:12.505Z,14.47
2024-05-09T23:40:41.436Z,14.45
2024-05-09T23:43:16.094Z,14.39
2024-05-09T23:45:43.904Z,14.31
2024-05-09T23:48:13.842Z,14.24
2024-05-09T23:50:41.755Z,14.18
2024-05-09T23:53:10.974Z,14.16
2024-05-09T23:55:40.304Z,14.13
2024-05-09T23:58:07.857Z,14.11
